createdAt,value
2022-11-28T00:00:52.915Z,6.73
2022-11-28T00:05:55.011Z,8.43
2022-11-28T00:10:57.257Z,6.87
2022-11-28T00:16:01.138Z,8.67
2022-11-28T00:21:09.425Z,8.40
2022-11-28T00:26:18.305Z,7.00
2022-11-28T00:31:23.739Z,7.82
2022-11-28T00:36:25.893Z,6.67
2022-11-28T00:41:31.148Z,7.10
2022-11-28T00:46:33.512Z,6.60
2022-11-28T00:51:36.194Z,6.17
2022-11-28T00:56:40.182Z,6.53
2022-11-28T01:01:44.247Z,6.43
2022-11-28T01:06:49.087Z,6.93
2022-11-28T01:11:53.526Z,6.60
2022-11-28T01:16:55.791Z,6.63
2022-11-28T01:21:57.886Z,6.30
2022-11-28T01:27:00.008Z,7.90
2022-11-28T01:32:02.239Z,6.90
2022-11-28T01:37:04.496Z,7.73
2022-11-28T01:42:18.723Z,7.57
2022-11-28T01:47:27.116Z,7.20
2022-11-28T01:52:29.351Z,7.33
2022-11-28T01:57:31.625Z,6.03
2022-11-28T02:02:40.105Z,7.33
2022-11-28T02:07:43.714Z,7.47
2022-11-28T02:13:15.203Z,7.30
2022-11-28T02:18:38.662Z,6.93
2022-11-28T02:23:58.947Z,6.70
2022-11-28T02:29:10.590Z,5.60
2022-11-28T02:34:15.628Z,6.07
2022-11-28T02:39:27.996Z,6.83
2022-11-28T02:44:46.214Z,6.23
2022-11-28T02:49:52.442Z,6.43
2022-11-28T02:54:55.217Z,5.80
2022-11-28T02:59:57.419Z,6.23
2022-11-28T03:05:08.405Z,6.87
2022-11-28T03:10:39.824Z,5.80
2022-11-28T03:16:05.042Z,4.87
2022-11-28T03:21:20.656Z,5.23
2022-11-28T03:26:33.356Z,4.23
2022-11-28T03:31:45.868Z,4.97
2022-11-28T03:36:52.634Z,4.67
2022-11-28T03:41:58.723Z,5.53
2022-11-28T03:47:02.691Z,5.00
2022-11-28T03:52:12.902Z,6.37
2022-11-28T03:57:23.585Z,4.87
2022-11-28T04:02:37.145Z,4.30
2022-11-28T04:07:47.169Z,5.03
2022-11-28T04:12:57.641Z,4.90
2022-11-28T04:18:11.784Z,4.77
2022-11-28T04:23:15.909Z,5.53
2022-11-28T04:28:21.786Z,7.20
2022-11-28T04:33:25.363Z,5.93
2022-11-28T04:38:28.936Z,5.07
2022-11-28T04:43:35.249Z,7.03
2022-11-28T04:48:37.539Z,5.70
2022-11-28T04:54:02.334Z,6.17
2022-11-28T04:59:06.238Z,6.73
2022-11-28T05:04:08.465Z,6.73
2022-11-28T05:09:12.139Z,7.13
2022-11-28T05:14:14.438Z,6.57
2022-11-28T05:19:16.829Z,6.70
2022-11-28T05:24:19.165Z,8.83
2022-11-28T05:29:21.285Z,7.13
2022-11-28T05:34:23.474Z,6.73
2022-11-28T05:39:26.020Z,8.33
2022-11-28T05:44:28.292Z,6.43
2022-11-28T05:49:30.541Z,6.60
2022-11-28T05:54:32.690Z,6.17
2022-11-28T05:59:35.041Z,6.60
2022-11-28T06:04:37.379Z,5.83
2022-11-28T06:09:39.504Z,6.97
2022-11-28T06:14:41.649Z,6.40
2022-11-28T06:19:43.906Z,6.87
2022-11-28T06:24:46.234Z,8.27
2022-11-28T06:29:48.464Z,7.00
2022-11-28T06:34:50.788Z,6.50
2022-11-28T06:39:53.835Z,7.83
2022-11-28T06:44:56.062Z,7.33
2022-11-28T06:49:58.310Z,7.63
2022-11-28T06:55:00.462Z,7.40
2022-11-28T07:00:03.079Z,7.53
2022-11-28T07:05:06.305Z,9.77
2022-11-28T07:10:08.737Z,11.20
2022-11-28T07:15:11.586Z,9.90
2022-11-28T07:20:14.247Z,7.60
2022-11-28T07:25:16.634Z,7.70
2022-11-28T07:30:27.879Z,7.90
2022-11-28T07:35:30.067Z,8.77
2022-11-28T07:40:32.230Z,7.10
2022-11-28T07:45:53.929Z,8.23
2022-11-28T07:50:56.584Z,7.40
2022-11-28T07:56:06.359Z,7.90
2022-11-28T08:01:10.230Z,8.53
2022-11-28T08:06:13.044Z,8.27
2022-11-28T08:11:17.187Z,8.13
2022-11-28T08:16:22.119Z,8.07
2022-11-28T08:21:30.124Z,9.13
2022-11-28T08:26:33.150Z,8.57
2022-11-28T08:31:38.387Z,7.83
2022-11-28T08:36:40.635Z,9.27
2022-11-28T08:41:42.988Z,7.77
2022-11-28T08:46:45.118Z,7.50
2022-11-28T08:51:47.309Z,6.90
2022-11-28T08:56:49.671Z,7.83
2022-11-28T09:01:55.438Z,7.10
2022-11-28T09:06:57.652Z,7.20
2022-11-28T09:11:59.931Z,6.53
2022-11-28T09:17:02.276Z,7.00
2022-11-28T09:22:04.548Z,7.47
2022-11-28T09:27:06.656Z,6.70
2022-11-28T09:32:08.832Z,7.43
2022-11-28T09:37:11.261Z,6.87
2022-11-28T09:42:17.238Z,6.43
2022-11-28T09:47:26.209Z,7.73
2022-11-28T09:52:38.954Z,6.10
2022-11-28T09:57:46.812Z,6.13
2022-11-28T10:03:04.117Z,6.90
2022-11-28T10:08:43.106Z,6.20
2022-11-28T10:14:07.802Z,6.83
2022-11-28T10:19:31.602Z,7.03
2022-11-28T10:24:41.817Z,7.53
2022-11-28T10:30:01.518Z,6.70
2022-11-28T10:35:22.747Z,7.57
2022-11-28T10:40:29.118Z,5.47
2022-11-28T10:45:35.051Z,5.40
2022-11-28T10:50:48.085Z,6.93
2022-11-28T10:56:14.840Z,5.90
2022-11-28T11:01:17.252Z,6.10
2022-11-28T11:06:19.419Z,5.43
2022-11-28T11:11:33.922Z,7.60
2022-11-28T11:16:52.413Z,7.37
2022-11-28T11:22:00.032Z,8.07
2022-11-28T11:27:19.879Z,6.33
2022-11-28T11:37:35.593Z,6.07
2022-11-28T11:42:57.849Z,6.80
2022-11-28T11:48:00.841Z,8.13
2022-11-28T11:53:15.531Z,7.37
2022-11-28T11:58:24.160Z,7.10
2022-11-28T12:03:41.690Z,7.45
2022-11-28T12:08:52.258Z,7.73
2022-11-28T12:13:54.621Z,7.33
2022-11-28T12:19:23.565Z,6.33
2022-11-28T12:25:07.723Z,7.10
2022-11-28T12:30:15.893Z,7.53
2022-11-28T12:35:42.416Z,7.90
2022-11-28T12:41:11.562Z,6.83
2022-11-28T12:46:36.946Z,6.77
2022-11-28T12:51:54.278Z,6.20
2022-11-28T12:57:25.847Z,6.27
2022-11-28T13:02:36.026Z,6.50
2022-11-28T13:08:02.985Z,7.13
2022-11-28T13:13:15.110Z,6.43
2022-11-28T13:18:41.910Z,7.33
2022-11-28T13:24:15.135Z,6.33
2022-11-28T13:29:26.532Z,6.07
2022-11-28T13:34:29.205Z,5.90
2022-11-28T13:39:37.453Z,6.53
2022-11-28T13:44:52.120Z,5.60
2022-11-28T13:50:40.890Z,6.63
2022-11-28T13:55:48.291Z,5.70
2022-11-28T14:01:04.586Z,5.47
2022-11-28T14:06:07.455Z,6.47
2022-11-28T14:11:49.924Z,5.37
2022-11-28T14:17:11.816Z,5.73
2022-11-28T14:22:32.450Z,5.87
2022-11-28T14:27:37.147Z,5.87
2022-11-28T14:32:42.548Z,6.30
2022-11-28T14:37:55.292Z,6.30
2022-11-28T14:43:25.515Z,5.97
2022-11-28T14:48:31.140Z,5.78
2022-11-28T14:53:34.598Z,5.47
2022-11-28T14:58:36.855Z,5.97
2022-11-28T15:03:47.701Z,5.70
2022-11-28T15:09:02.163Z,6.23
2022-11-28T15:14:10.831Z,6.90
2022-11-28T15:19:23.981Z,6.57
2022-11-28T15:24:30.984Z,7.50
2022-11-28T15:29:33.586Z,6.60
2022-11-28T15:34:37.255Z,5.70
2022-11-28T15:39:41.155Z,5.50
2022-11-28T15:44:44.511Z,5.87
2022-11-28T15:50:05.843Z,5.03
2022-11-28T15:55:17.592Z,5.77
2022-11-28T16:00:22.273Z,4.60
2022-11-28T16:05:24.769Z,4.63
2022-11-28T16:10:30.852Z,6.73
2022-11-28T16:15:33.114Z,5.43
2022-11-28T16:20:36.427Z,5.33
2022-11-28T16:25:39.234Z,5.47
2022-11-28T16:30:48.795Z,7.07
2022-11-28T16:35:51.056Z,7.40
2022-11-28T16:41:00.055Z,8.10
2022-11-28T16:46:04.657Z,8.50
2022-11-28T16:51:13.021Z,7.63
2022-11-28T16:56:27.237Z,7.00
2022-11-28T17:01:30.914Z,8.30
2022-11-28T17:06:37.178Z,9.53
2022-11-28T17:11:43.755Z,8.33
2022-11-28T17:16:45.971Z,7.40
2022-11-28T17:21:54.251Z,6.67
2022-11-28T17:26:56.381Z,5.93
2022-11-28T17:31:59.660Z,4.93
2022-11-28T17:37:03.127Z,6.03
2022-11-28T17:42:06.245Z,5.90
2022-11-28T17:47:08.513Z,4.93
2022-11-28T17:52:10.850Z,5.33
2022-11-28T17:57:14.439Z,5.47
2022-11-28T18:02:16.953Z,5.27
2022-11-28T18:07:19.415Z,5.20
2022-11-28T18:12:21.688Z,5.10
2022-11-28T18:17:23.922Z,6.00
2022-11-28T18:22:26.944Z,5.67
2022-11-28T18:27:29.834Z,4.87
2022-11-28T18:32:33.824Z,6.27
2022-11-28T18:37:36.472Z,6.23
2022-11-28T18:42:39.144Z,7.40
2022-11-28T18:47:41.426Z,6.17
2022-11-28T18:52:43.809Z,5.83
2022-11-28T18:57:47.252Z,5.67
2022-11-28T19:02:49.836Z,5.43
2022-11-28T19:07:52.955Z,5.37
2022-11-28T19:12:55.396Z,6.33
2022-11-28T19:17:57.805Z,5.33
2022-11-28T19:23:00.005Z,7.00
2022-11-28T19:28:02.270Z,6.20
2022-11-28T19:33:04.965Z,6.07
2022-11-28T19:38:07.310Z,6.00
2022-11-28T19:43:09.997Z,5.40
2022-11-28T19:48:12.545Z,6.50
2022-11-28T19:53:14.713Z,6.93
2022-11-28T19:58:18.339Z,7.03
2022-11-28T20:03:20.897Z,5.50
2022-11-28T20:08:23.801Z,6.43
2022-11-28T20:13:26.420Z,4.93
2022-11-28T20:18:28.910Z,5.30
2022-11-28T20:23:31.157Z,5.47
2022-11-28T20:28:34.940Z,5.47
2022-11-28T20:33:37.414Z,5.63
2022-11-28T20:38:39.800Z,6.43
2022-11-28T20:43:42.284Z,6.27
2022-11-28T20:48:44.834Z,6.67
2022-11-28T20:53:47.165Z,7.17
2022-11-28T20:58:50.201Z,7.33
2022-11-28T21:03:52.802Z,7.37
2022-11-28T21:08:55.103Z,8.40
2022-11-28T21:13:57.486Z,6.50
2022-11-28T21:19:06.583Z,7.47
2022-11-28T21:24:12.806Z,7.68
2022-11-28T21:29:15.193Z,7.07
2022-11-28T21:34:19.423Z,8.07
2022-11-28T21:39:23.164Z,7.97
2022-11-28T21:44:25.327Z,9.57
2022-11-28T21:49:27.636Z,7.93
2022-11-28T21:54:29.865Z,7.43
2022-11-28T21:59:33.668Z,7.23
2022-11-28T22:04:35.958Z,4.80
2022-11-28T22:09:38.203Z,4.33
2022-11-28T22:14:40.392Z,4.40
2022-11-28T22:19:43.019Z,4.17
2022-11-28T22:24:45.302Z,3.93
2022-11-28T22:29:47.853Z,3.50
2022-11-28T22:34:50.284Z,3.50
2022-11-28T22:39:52.873Z,3.03
2022-11-28T22:44:55.166Z,3.80
2022-11-28T22:49:57.901Z,3.30
2022-11-28T22:55:00.144Z,3.93
2022-11-28T23:00:02.637Z,3.60
2022-11-28T23:05:06.323Z,4.30
2022-11-28T23:10:08.952Z,3.80
2022-11-28T23:15:11.299Z,4.33
2022-11-28T23:20:14.675Z,5.07
2022-11-28T23:25:18.481Z,5.50
2022-11-28T23:30:20.789Z,4.57
2022-11-28T23:35:23.087Z,4.20
2022-11-28T23:40:25.725Z,4.67
2022-11-28T23:45:27.965Z,4.63
2022-11-28T23:50:32.130Z,5.27
2022-11-28T23:55:34.548Z,4.80
